createdAt,value
2022-07-25T00:02:07.507Z,17.97
2022-07-25T00:07:10.740Z,17.72
2022-07-25T00:12:12.462Z,17.72
2022-07-25T00:17:14.838Z,17.80
2022-07-25T00:22:16.476Z,17.52
2022-07-25T00:27:18.240Z,17.46
2022-07-25T00:32:19.929Z,17.55
2022-07-25T00:37:21.577Z,17.57
2022-07-25T00:42:24.237Z,17.12
2022-07-25T00:47:26.571Z,17.16
2022-07-25T00:52:28.263Z,17.41
2022-07-25T00:57:30.033Z,17.34
2022-07-25T01:02:31.762Z,17.09
2022-07-25T01:07:33.541Z,16.99
2022-07-25T01:12:47.204Z,17.16
2022-07-25T01:17:49.374Z,16.97
2022-07-25T01:22:51.429Z,17.16
2022-07-25T01:27:55.881Z,16.84
2022-07-25T01:32:57.849Z,16.76
2022-07-25T01:37:59.492Z,16.94
2022-07-25T01:43:01.164Z,16.95
2022-07-25T01:48:02.859Z,17.00
2022-07-25T01:53:04.838Z,16.76
2022-07-25T01:58:07.395Z,16.47
2022-07-25T02:03:28.383Z,16.41
2022-07-25T02:08:30.917Z,16.49
2022-07-25T02:13:32.598Z,16.60
2022-07-25T02:18:34.389Z,16.56
2022-07-25T02:23:36.648Z,16.29
2022-07-25T02:28:38.367Z,16.27
2022-07-25T02:33:40.071Z,16.29
2022-07-25T02:38:41.734Z,16.29
2022-07-25T02:43:43.450Z,16.11
2022-07-25T02:48:45.193Z,16.14
2022-07-25T02:53:57.050Z,16.11
2022-07-25T02:58:59.801Z,16.05
2022-07-25T03:04:01.534Z,16.08
2022-07-25T03:09:03.509Z,15.98
2022-07-25T03:14:05.566Z,16.07
2022-07-25T03:19:10.422Z,15.93
2022-07-25T03:24:12.135Z,15.99
2022-07-25T03:29:13.894Z,15.95
2022-07-25T03:34:15.585Z,16.08
2022-07-25T03:39:17.545Z,16.07
2022-07-25T03:44:20.096Z,16.15
2022-07-25T03:49:21.760Z,16.23
2022-07-25T03:54:23.424Z,16.00
2022-07-25T03:59:26.265Z,16.26
2022-07-25T04:04:27.919Z,16.33
2022-07-25T04:09:32.397Z,16.21
2022-07-25T04:14:35.480Z,16.55
2022-07-25T04:19:37.175Z,16.70
2022-07-25T04:24:38.949Z,17.41
2022-07-25T04:29:40.597Z,17.62
2022-07-25T04:34:43.769Z,17.78
2022-07-25T04:39:45.427Z,17.83
2022-07-25T04:44:47.070Z,18.09
2022-07-25T04:49:48.700Z,18.34
2022-07-25T04:54:50.394Z,18.66
2022-07-25T04:59:52.101Z,19.05
2022-07-25T05:04:53.773Z,19.41
2022-07-25T05:09:55.501Z,20.03
2022-07-25T05:14:57.229Z,19.95
2022-07-25T05:19:59.191Z,20.03
2022-07-25T05:25:02.465Z,20.24
2022-07-25T05:30:07.646Z,21.08
2022-07-25T05:35:10.589Z,22.01
2022-07-25T05:40:13.219Z,21.55
2022-07-25T05:45:14.913Z,22.15
2022-07-25T05:50:16.766Z,22.76
2022-07-25T05:55:18.872Z,23.02
2022-07-25T06:00:20.545Z,24.88
2022-07-25T06:05:22.244Z,24.47
2022-07-25T06:10:24.496Z,23.96
2022-07-25T06:15:26.861Z,23.45
2022-07-25T06:20:29.290Z,23.56
2022-07-25T06:25:31.222Z,23.53
2022-07-25T06:30:33.481Z,24.37
2022-07-25T06:35:35.334Z,25.74
2022-07-25T06:40:37.002Z,26.86
2022-07-25T06:45:38.745Z,26.01
2022-07-25T06:50:40.536Z,26.82
2022-07-25T06:55:42.367Z,27.08
2022-07-25T07:00:44.244Z,27.75
2022-07-25T07:05:45.964Z,27.85
2022-07-25T07:10:47.621Z,31.50
2022-07-25T07:15:50.546Z,29.05
2022-07-25T07:20:52.908Z,29.27
2022-07-25T07:25:54.629Z,32.30
2022-07-25T07:31:15.739Z,32.53
2022-07-25T07:36:18.353Z,33.44
2022-07-25T07:41:20.135Z,33.49
2022-07-25T07:46:21.830Z,35.81
2022-07-25T07:51:23.497Z,36.14
2022-07-25T07:56:25.246Z,35.40
2022-07-25T08:01:27.130Z,34.45
2022-07-25T08:06:29.116Z,34.63
2022-07-25T08:11:30.809Z,34.77
2022-07-25T08:16:33.437Z,35.40
2022-07-25T08:21:35.159Z,34.14
2022-07-25T08:26:37.289Z,33.61
2022-07-25T08:31:39.074Z,35.65
2022-07-25T08:36:40.776Z,35.95
2022-07-25T08:41:43.363Z,35.37
2022-07-25T08:46:45.723Z,35.83
2022-07-25T08:51:47.898Z,35.33
2022-07-25T08:56:53.512Z,34.89
2022-07-25T09:01:55.288Z,34.84
2022-07-25T09:06:56.967Z,36.72
2022-07-25T09:11:59.019Z,34.16
2022-07-25T09:17:07.221Z,34.48
2022-07-25T09:22:24.399Z,33.83
2022-07-25T09:27:26.183Z,36.28
2022-07-25T09:32:27.819Z,35.35
2022-07-25T09:37:29.479Z,36.33
2022-07-25T09:42:32.750Z,35.00
2022-07-25T09:47:36.187Z,34.42
2022-07-25T09:52:38.447Z,35.77
2022-07-25T09:57:41.192Z,34.44
2022-07-25T10:02:50.843Z,35.79
2022-07-25T10:07:54.905Z,36.19
2022-07-25T10:13:26.606Z,36.05
2022-07-25T10:18:30.731Z,35.28
2022-07-25T10:23:32.408Z,35.18
2022-07-25T10:28:42.466Z,36.99
2022-07-25T10:33:48.560Z,34.85
2022-07-25T10:38:57.647Z,34.33
2022-07-25T10:44:02.441Z,33.42
2022-07-25T10:49:06.789Z,34.20
2022-07-25T10:54:13.974Z,36.64
2022-07-25T10:59:29.636Z,35.63
2022-07-25T11:04:31.435Z,35.94
2022-07-25T11:09:34.303Z,35.47
2022-07-25T11:14:42.245Z,37.46
2022-07-25T11:19:54.446Z,35.92
2022-07-25T11:24:57.620Z,35.57
2022-07-25T11:30:15.025Z,34.90
2022-07-25T11:35:21.950Z,34.38
2022-07-25T11:40:23.849Z,34.56
2022-07-25T11:45:33.971Z,33.76
2022-07-25T11:50:44.091Z,34.33
2022-07-25T11:55:47.147Z,35.24
2022-07-25T12:00:50.183Z,34.36
2022-07-25T12:05:51.942Z,34.34
2022-07-25T12:10:55.629Z,34.28
2022-07-25T12:15:59.864Z,34.35
2022-07-25T12:21:01.534Z,34.65
2022-07-25T12:26:03.262Z,34.76
2022-07-25T12:31:05.078Z,37.06
2022-07-25T12:36:08.626Z,34.30
2022-07-25T12:41:14.593Z,35.18
2022-07-25T12:46:19.299Z,34.70
2022-07-25T12:51:21.109Z,34.91
2022-07-25T12:56:22.794Z,36.57
2022-07-25T13:01:25.057Z,34.77
2022-07-25T13:06:26.793Z,34.64
2022-07-25T13:11:28.454Z,35.92
2022-07-25T13:16:30.219Z,34.93
2022-07-25T13:21:31.943Z,35.82
2022-07-25T13:26:34.454Z,34.75
2022-07-25T13:31:36.249Z,34.61
2022-07-25T13:36:38.889Z,34.66
2022-07-25T13:41:40.544Z,34.57
2022-07-25T13:46:46.003Z,34.70
2022-07-25T13:51:48.056Z,35.15
2022-07-25T13:56:49.779Z,35.21
2022-07-25T14:01:51.576Z,36.34
2022-07-25T14:06:53.761Z,34.82
2022-07-25T14:11:55.493Z,34.42
2022-07-25T14:16:57.919Z,34.83
2022-07-25T14:21:59.610Z,35.01
2022-07-25T14:27:01.350Z,35.41
2022-07-25T14:32:03.243Z,34.73
2022-07-25T14:37:05.759Z,34.74
2022-07-25T14:42:09.405Z,35.54
2022-07-25T14:47:12.790Z,35.50
2022-07-25T14:52:15.768Z,36.04
2022-07-25T14:57:17.586Z,35.57
2022-07-25T15:02:19.591Z,35.59
2022-07-25T15:07:21.347Z,35.18
2022-07-25T15:12:23.028Z,34.87
2022-07-25T15:17:24.798Z,34.05
2022-07-25T15:22:26.488Z,34.15
2022-07-25T15:27:28.212Z,34.48
2022-07-25T15:32:29.877Z,34.32
2022-07-25T15:37:31.539Z,34.45
2022-07-25T15:42:34.127Z,34.38
2022-07-25T15:47:35.921Z,34.29
2022-07-25T15:52:37.583Z,34.74
2022-07-25T15:57:39.323Z,34.85
2022-07-25T16:02:41.036Z,34.67
2022-07-25T16:07:43.226Z,34.60
2022-07-25T16:12:45.129Z,34.76
2022-07-25T16:17:46.795Z,35.42
2022-07-25T16:22:49.112Z,35.37
2022-07-25T16:27:51.927Z,35.54
2022-07-25T16:32:53.771Z,35.77
2022-07-25T16:37:55.463Z,35.50
2022-07-25T16:42:59.306Z,35.34
2022-07-25T16:48:01.032Z,34.89
2022-07-25T16:53:02.694Z,34.76
2022-07-25T16:58:04.407Z,34.42
2022-07-25T17:03:06.202Z,34.57
2022-07-25T17:08:07.863Z,34.46
2022-07-25T17:13:09.621Z,34.13
2022-07-25T17:18:11.350Z,34.07
2022-07-25T17:23:13.325Z,34.19
2022-07-25T17:28:15.080Z,34.03
2022-07-25T17:33:16.895Z,33.81
2022-07-25T17:38:23.744Z,33.77
2022-07-25T17:43:28.926Z,33.42
2022-07-25T17:48:30.785Z,33.14
2022-07-25T17:53:32.945Z,32.91
2022-07-25T17:58:35.365Z,32.64
2022-07-25T18:03:37.046Z,31.91
2022-07-25T18:08:38.725Z,32.20
2022-07-25T18:13:40.513Z,31.53
2022-07-25T18:18:42.289Z,30.41
2022-07-25T18:23:43.999Z,29.84
2022-07-25T18:28:45.789Z,29.15
2022-07-25T18:33:47.453Z,28.61
2022-07-25T18:38:49.295Z,28.45
2022-07-25T18:43:52.962Z,28.34
2022-07-25T18:48:54.650Z,28.34
2022-07-25T18:53:56.288Z,28.45
2022-07-25T18:58:58.161Z,28.21
2022-07-25T19:04:01.810Z,28.18
2022-07-25T19:09:04.149Z,28.14
2022-07-25T19:14:05.979Z,27.89
2022-07-25T19:19:09.618Z,27.84
2022-07-25T19:24:12.228Z,27.63
2022-07-25T19:29:15.593Z,27.60
2022-07-25T19:34:17.291Z,27.48
2022-07-25T19:39:18.977Z,27.59
2022-07-25T19:44:23.345Z,27.30
2022-07-25T19:49:25.004Z,27.42
2022-07-25T19:54:26.717Z,27.24
2022-07-25T19:59:28.654Z,27.05
2022-07-25T20:04:30.963Z,27.13
2022-07-25T20:09:34.901Z,26.94
2022-07-25T20:14:36.589Z,26.88
2022-07-25T20:19:38.341Z,25.60
2022-07-25T20:24:40.611Z,24.54
2022-07-25T20:29:42.438Z,23.88
2022-07-25T20:34:45.353Z,23.74
2022-07-25T20:39:47.041Z,23.64
2022-07-25T20:44:50.031Z,23.70
2022-07-25T20:49:51.689Z,23.75
2022-07-25T20:54:53.785Z,23.66
2022-07-25T20:59:55.497Z,23.77
2022-07-25T21:04:57.172Z,23.78
2022-07-25T21:09:58.940Z,23.74
2022-07-25T21:15:01.377Z,23.63
2022-07-25T21:20:04.080Z,23.71
2022-07-25T21:25:06.099Z,23.62
2022-07-25T21:30:09.950Z,23.53
2022-07-25T21:35:11.701Z,23.74
2022-07-25T21:40:13.433Z,23.52
2022-07-25T21:45:15.808Z,23.53
2022-07-25T21:50:35.819Z,23.67
2022-07-25T21:55:45.660Z,23.85
2022-07-25T22:00:47.420Z,23.79
2022-07-25T22:05:49.137Z,23.52
2022-07-25T22:10:50.945Z,23.43
2022-07-25T22:15:53.820Z,23.20
2022-07-25T22:20:55.617Z,23.10
2022-07-25T22:25:57.267Z,22.98
2022-07-25T22:30:59.137Z,23.41
2022-07-25T22:36:01.439Z,24.47
2022-07-25T22:41:03.255Z,24.67
2022-07-25T22:46:05.036Z,24.55
2022-07-25T22:51:06.708Z,24.21
2022-07-25T22:56:08.505Z,24.00
2022-07-25T23:01:11.000Z,23.71
2022-07-25T23:06:13.053Z,23.62
2022-07-25T23:11:14.803Z,23.44
2022-07-25T23:16:16.644Z,23.24
2022-07-25T23:21:18.400Z,23.19
2022-07-25T23:26:20.070Z,23.00
2022-07-25T23:31:21.952Z,22.85
2022-07-25T23:36:23.627Z,22.72
2022-07-25T23:41:25.264Z,22.68
2022-07-25T23:46:29.528Z,22.69
2022-07-25T23:51:33.289Z,22.75
2022-07-25T23:56:34.932Z,22.63
